createdAt,value
2023-02-14T00:00:49.175Z,103226.81
2023-02-14T00:03:16.073Z,103272.81
2023-02-14T00:05:42.746Z,103272.59
2023-02-14T00:08:09.323Z,103236.84
2023-02-14T00:10:35.935Z,103150.81
2023-02-14T00:13:02.493Z,103161.34
2023-02-14T00:15:29.076Z,103162.72
2023-02-14T00:17:59.617Z,103243.81
2023-02-14T00:20:27.595Z,103257.00
2023-02-14T00:22:54.685Z,103269.47
2023-02-14T00:25:21.347Z,103187.75
2023-02-14T00:27:47.977Z,103162.47
2023-02-14T00:30:14.930Z,103171.81
2023-02-14T00:32:42.539Z,103212.00
2023-02-14T00:35:09.723Z,103234.09
2023-02-14T00:37:36.653Z,103222.41
2023-02-14T00:40:05.114Z,103232.25
2023-02-14T00:42:31.660Z,103230.44
2023-02-14T00:44:58.189Z,103222.41
2023-02-14T00:47:24.861Z,103152.88
2023-02-14T00:49:51.958Z,103235.25
2023-02-14T00:52:18.654Z,103154.00
2023-02-14T00:54:45.446Z,103234.13
2023-02-14T00:57:14.016Z,103262.94
2023-02-14T00:59:40.566Z,103252.44
2023-02-14T01:02:07.248Z,103156.25
2023-02-14T01:04:34.342Z,103254.97
2023-02-14T01:07:00.935Z,103150.75
2023-02-14T01:09:27.649Z,103165.97
2023-02-14T01:11:54.250Z,103222.91
2023-02-14T01:14:20.797Z,103271.00
2023-02-14T01:16:49.537Z,103269.50
2023-02-14T01:19:16.516Z,103205.78
2023-02-14T01:21:43.872Z,103230.97
2023-02-14T01:24:12.141Z,103262.94
2023-02-14T01:26:39.694Z,103179.06
2023-02-14T01:29:06.624Z,103196.03
2023-02-14T01:31:35.334Z,103245.28
2023-02-14T01:34:02.595Z,103248.94
2023-02-14T01:36:31.953Z,103171.19
2023-02-14T01:39:02.245Z,103088.28
2023-02-14T01:41:32.451Z,103145.41
2023-02-14T01:44:01.550Z,103153.09
2023-02-14T01:46:32.239Z,103233.38
2023-02-14T01:49:04.819Z,103236.13
2023-02-14T01:51:32.494Z,103266.81
2023-02-14T01:53:59.877Z,103279.72
2023-02-14T01:56:45.440Z,103247.31
2023-02-14T01:59:18.284Z,103247.75
2023-02-14T02:01:48.459Z,103246.53
2023-02-14T02:04:25.853Z,103244.34
2023-02-14T02:06:56.546Z,103135.91
2023-02-14T02:09:46.918Z,103255.09
2023-02-14T02:12:13.572Z,103244.53
2023-02-14T02:14:41.292Z,103158.84
2023-02-14T02:17:35.807Z,103251.28
2023-02-14T02:20:40.410Z,103245.22
2023-02-14T02:23:21.900Z,103243.81
2023-02-14T02:26:07.347Z,103236.47
2023-02-14T02:29:15.878Z,103246.41
2023-02-14T02:31:45.991Z,103238.94
2023-02-14T02:34:50.222Z,103243.72
2023-02-14T02:37:28.383Z,103182.78
2023-02-14T02:40:22.185Z,103238.59
2023-02-14T02:42:56.472Z,103185.97
2023-02-14T02:46:28.577Z,103227.94
2023-02-14T02:49:03.745Z,103100.34
2023-02-14T02:51:58.395Z,103102.75
2023-02-14T02:54:39.007Z,103185.72
2023-02-14T02:57:12.441Z,103207.00
2023-02-14T02:59:42.610Z,103212.50
2023-02-14T03:02:17.881Z,103168.00
2023-02-14T03:04:55.844Z,103183.34
2023-02-14T03:07:40.588Z,103233.81
2023-02-14T03:10:13.015Z,103224.69
2023-02-14T03:12:58.452Z,103241.13
2023-02-14T03:15:27.878Z,103240.50
2023-02-14T03:18:00.542Z,103245.25
2023-02-14T03:20:29.855Z,103239.88
2023-02-14T03:23:09.406Z,103143.13
2023-02-14T03:25:52.616Z,103239.03
2023-02-14T03:28:40.934Z,103245.84
2023-02-14T03:31:23.094Z,103228.31
2023-02-14T03:34:00.878Z,103203.03
2023-02-14T03:36:39.273Z,103250.72
2023-02-14T03:39:16.073Z,103184.94
2023-02-14T03:41:56.522Z,103214.94
2023-02-14T03:44:28.446Z,103229.13
2023-02-14T03:47:01.272Z,103218.38
2023-02-14T03:49:32.314Z,103211.59
2023-02-14T03:52:02.543Z,103205.00
2023-02-14T03:54:32.807Z,103142.94
2023-02-14T03:57:12.458Z,103234.78
2023-02-14T03:59:39.853Z,103087.66
2023-02-14T04:02:11.285Z,103182.88
2023-02-14T04:04:43.368Z,103212.38
2023-02-14T04:07:16.360Z,103143.47
2023-02-14T04:09:43.049Z,103198.63
2023-02-14T04:12:10.340Z,103210.03
2023-02-14T04:14:37.730Z,103147.16
2023-02-14T04:17:23.396Z,103162.59
2023-02-14T04:19:50.615Z,103247.78
2023-02-14T04:22:17.330Z,103128.00
2023-02-14T04:24:43.897Z,103223.81
2023-02-14T04:27:11.159Z,103117.66
2023-02-14T04:29:40.347Z,103103.25
2023-02-14T04:32:12.845Z,103238.47
2023-02-14T04:34:39.801Z,103254.63
2023-02-14T04:37:06.921Z,103226.44
2023-02-14T04:39:34.053Z,103165.22
2023-02-14T04:42:00.941Z,103237.69
2023-02-14T04:44:27.776Z,103218.16
2023-02-14T04:46:54.617Z,103107.97
2023-02-14T04:49:21.369Z,103200.34
2023-02-14T04:51:48.286Z,103211.59
2023-02-14T04:54:14.924Z,103179.25
2023-02-14T04:56:41.589Z,103228.91
2023-02-14T04:59:08.719Z,103111.13
2023-02-14T05:01:35.405Z,103117.78
2023-02-14T05:04:02.141Z,103222.59
2023-02-14T05:06:28.994Z,103189.56
2023-02-14T05:08:56.702Z,103210.78
2023-02-14T05:11:23.394Z,103207.25
2023-02-14T05:13:50.298Z,103185.50
2023-02-14T05:16:16.966Z,103073.00
2023-02-14T05:18:43.573Z,103158.25
2023-02-14T05:21:10.744Z,103087.53
2023-02-14T05:23:37.552Z,103170.31
2023-02-14T05:26:04.602Z,103192.72
2023-02-14T05:28:31.793Z,103206.88
2023-02-14T05:30:58.904Z,103158.41
2023-02-14T05:33:26.995Z,103105.22
2023-02-14T05:35:53.607Z,103198.13
2023-02-14T05:38:20.275Z,103195.38
2023-02-14T05:40:46.978Z,103076.94
2023-02-14T05:43:13.696Z,103181.88
2023-02-14T05:45:40.264Z,103198.38
2023-02-14T05:48:06.868Z,103173.34
2023-02-14T05:50:33.535Z,103156.31
2023-02-14T05:53:00.729Z,103160.25
2023-02-14T05:55:27.306Z,103181.75
2023-02-14T05:57:53.840Z,103128.53
2023-02-14T06:00:21.307Z,103201.66
2023-02-14T06:02:47.932Z,103181.47
2023-02-14T06:05:15.188Z,103081.63
2023-02-14T06:07:43.598Z,103104.69
2023-02-14T06:10:10.381Z,103174.13
2023-02-14T06:12:37.038Z,103193.13
2023-02-14T06:15:04.518Z,103166.53
2023-02-14T06:17:31.124Z,103076.97
2023-02-14T06:19:57.623Z,103200.22
2023-02-14T06:22:24.255Z,103187.91
2023-02-14T06:24:50.789Z,103169.16
2023-02-14T06:27:17.417Z,103157.59
2023-02-14T06:29:44.049Z,103191.28
2023-02-14T06:32:10.787Z,103197.97
2023-02-14T06:34:37.402Z,103091.97
2023-02-14T06:37:03.918Z,103213.69
2023-02-14T06:39:30.415Z,103109.13
2023-02-14T06:41:56.971Z,103201.88
2023-02-14T06:44:23.533Z,103191.78
2023-02-14T06:46:50.356Z,103192.72
2023-02-14T06:49:16.894Z,103222.34
2023-02-14T06:51:43.431Z,103115.66
2023-02-14T06:54:10.022Z,103217.34
2023-02-14T06:56:36.597Z,103185.75
2023-02-14T06:59:03.213Z,103183.25
2023-02-14T07:01:29.941Z,103110.00
2023-02-14T07:03:56.604Z,103139.88
2023-02-14T07:06:23.186Z,103129.00
2023-02-14T07:08:49.824Z,103206.69
2023-02-14T07:11:16.762Z,103226.25
2023-02-14T07:13:43.920Z,103236.22
2023-02-14T07:16:10.930Z,103183.00
2023-02-14T07:18:37.741Z,103226.00
2023-02-14T07:21:06.040Z,103111.09
2023-02-14T07:23:33.026Z,103221.16
2023-02-14T07:25:59.672Z,103206.34
2023-02-14T07:28:26.289Z,103244.25
2023-02-14T07:30:52.983Z,103192.19
2023-02-14T07:33:19.645Z,103191.94
2023-02-14T07:35:46.281Z,103238.63
2023-02-14T07:38:12.813Z,103216.84
2023-02-14T07:40:39.350Z,103217.84
2023-02-14T07:43:06.402Z,103110.56
2023-02-14T07:45:32.953Z,103216.16
2023-02-14T07:48:02.050Z,103221.94
2023-02-14T07:50:29.372Z,103235.13
2023-02-14T07:52:56.475Z,103206.41
2023-02-14T07:55:25.062Z,103212.81
2023-02-14T07:57:52.054Z,103153.28
2023-02-14T08:00:19.374Z,103203.66
2023-02-14T08:02:45.999Z,103159.22
2023-02-14T08:05:12.819Z,103216.56
2023-02-14T08:07:39.413Z,103149.91
2023-02-14T08:10:06.836Z,103230.59
2023-02-14T08:12:52.014Z,103173.59
2023-02-14T08:15:37.301Z,103244.03
2023-02-14T08:18:04.145Z,103200.38
2023-02-14T08:20:30.704Z,103220.72
2023-02-14T08:22:58.197Z,103214.00
2023-02-14T08:25:24.800Z,103210.06
2023-02-14T08:27:51.447Z,103207.75
2023-02-14T08:30:18.349Z,103213.22
2023-02-14T08:32:45.177Z,103219.63
2023-02-14T08:35:11.754Z,103228.91
2023-02-14T08:37:38.390Z,103188.50
2023-02-14T08:40:05.775Z,103216.38
2023-02-14T08:42:32.800Z,103179.56
2023-02-14T08:44:59.403Z,103220.50
2023-02-14T08:47:25.972Z,103240.59
2023-02-14T08:49:52.664Z,103205.81
2023-02-14T08:52:19.271Z,103210.22
2023-02-14T08:54:45.873Z,103222.81
2023-02-14T08:57:12.838Z,103119.50
2023-02-14T08:59:40.518Z,103168.78
2023-02-14T09:02:07.120Z,103213.00
2023-02-14T09:04:35.251Z,103180.78
2023-02-14T09:07:02.025Z,103216.47
2023-02-14T09:09:28.846Z,103193.75
2023-02-14T09:11:56.171Z,103208.56
2023-02-14T09:14:24.261Z,103185.22
2023-02-14T09:16:51.029Z,103195.94
2023-02-14T09:19:20.583Z,103126.28
2023-02-14T09:21:47.250Z,103184.56
2023-02-14T09:24:13.788Z,103199.09
2023-02-14T09:26:42.150Z,103191.00
2023-02-14T09:29:09.794Z,103197.63
2023-02-14T09:31:36.508Z,103123.78
2023-02-14T09:34:03.562Z,103189.69
2023-02-14T09:36:30.223Z,103200.50
2023-02-14T09:38:56.783Z,103192.13
2023-02-14T09:41:26.096Z,103137.50
2023-02-14T09:44:03.461Z,103204.44
2023-02-14T09:46:35.184Z,103110.97
2023-02-14T09:49:02.978Z,103214.09
2023-02-14T09:51:31.602Z,103100.19
2023-02-14T09:54:12.722Z,103191.81
2023-02-14T09:57:02.608Z,103201.56
2023-02-14T09:59:51.815Z,103206.88
2023-02-14T10:02:46.186Z,103201.06
2023-02-14T10:05:26.517Z,103194.66
2023-02-14T10:08:05.478Z,103054.00
2023-02-14T10:10:41.593Z,103134.84
2023-02-14T10:13:25.858Z,103178.13
2023-02-14T10:16:04.399Z,103176.03
2023-02-14T10:18:41.218Z,103109.63
2023-02-14T10:21:15.488Z,103105.19
2023-02-14T10:23:47.469Z,103142.66
2023-02-14T10:26:39.980Z,103174.59
2023-02-14T10:29:14.232Z,103096.25
2023-02-14T10:31:56.845Z,103155.13
2023-02-14T10:34:45.703Z,103165.19
2023-02-14T10:37:30.608Z,103177.56
2023-02-14T10:40:06.322Z,103172.22
2023-02-14T10:42:32.921Z,103169.69
2023-02-14T10:45:41.694Z,103165.47
2023-02-14T10:48:21.508Z,103161.19
2023-02-14T10:51:06.998Z,103172.16
2023-02-14T10:53:50.203Z,103167.91
2023-02-14T10:56:28.035Z,103098.97
2023-02-14T10:58:56.585Z,103129.59
2023-02-14T11:01:23.741Z,103076.13
2023-02-14T11:04:03.330Z,103138.00
2023-02-14T11:06:30.811Z,103125.75
2023-02-14T11:08:57.598Z,103073.25
2023-02-14T11:11:53.119Z,103143.81
2023-02-14T11:14:32.841Z,103127.84
2023-02-14T11:17:00.645Z,103119.03
2023-02-14T11:19:30.073Z,103061.06
2023-02-14T11:21:59.494Z,103028.38
2023-02-14T11:24:28.400Z,103118.75
2023-02-14T11:26:58.987Z,103102.84
2023-02-14T11:29:33.195Z,103126.44
2023-02-14T11:32:37.525Z,103112.28
2023-02-14T11:35:33.797Z,103113.28
2023-02-14T11:38:03.625Z,103045.56
2023-02-14T11:40:34.644Z,103031.19
2023-02-14T11:43:19.050Z,103028.47
2023-02-14T11:45:47.700Z,103107.00
2023-02-14T11:48:37.173Z,103034.66
2023-02-14T11:51:10.915Z,103031.97
2023-02-14T11:53:43.456Z,103087.84
2023-02-14T11:56:10.197Z,103082.31
2023-02-14T11:58:47.728Z,103016.44
2023-02-14T12:01:24.149Z,103053.19
2023-02-14T12:03:53.013Z,103006.22
2023-02-14T12:06:38.530Z,103006.56
2023-02-14T12:09:23.465Z,103062.53
2023-02-14T12:12:00.140Z,103064.59
2023-02-14T12:14:31.013Z,102985.13
2023-02-14T12:17:31.530Z,103055.53
2023-02-14T12:20:13.624Z,102959.84
2023-02-14T12:22:47.600Z,102975.91
2023-02-14T12:25:22.786Z,102983.19
2023-02-14T12:27:56.273Z,102962.16
2023-02-14T12:30:25.259Z,103016.75
2023-02-14T12:32:53.996Z,103017.53
2023-02-14T12:35:54.045Z,102955.38
2023-02-14T12:38:27.554Z,103027.47
2023-02-14T12:41:12.549Z,103024.28
2023-02-14T12:43:50.612Z,102949.81
2023-02-14T12:46:43.963Z,103017.66
2023-02-14T12:49:34.772Z,103013.03
2023-02-14T12:52:33.547Z,103005.28
2023-02-14T12:55:18.060Z,102999.97
2023-02-14T12:57:59.472Z,102921.06
2023-02-14T13:00:54.615Z,102989.06
2023-02-14T13:03:41.871Z,103005.63
2023-02-14T13:06:34.526Z,102990.75
2023-02-14T13:09:20.391Z,102983.34
2023-02-14T13:12:01.813Z,102987.56
2023-02-14T13:14:46.839Z,102990.41
2023-02-14T13:17:35.344Z,102983.38
2023-02-14T13:20:44.710Z,102946.19
2023-02-14T13:23:18.952Z,102902.81
2023-02-14T13:25:51.885Z,102928.13
2023-02-14T13:28:20.121Z,102890.63
2023-02-14T13:30:47.007Z,102956.41
2023-02-14T13:34:03.210Z,102957.97
2023-02-14T13:36:31.307Z,102891.13
2023-02-14T13:38:59.241Z,102870.97
2023-02-14T13:41:28.142Z,102931.81
2023-02-14T13:44:02.412Z,102939.28
2023-02-14T13:46:32.037Z,102931.66
2023-02-14T13:49:07.428Z,102923.75
2023-02-14T13:51:48.345Z,102893.78
2023-02-14T13:54:46.712Z,102930.06
2023-02-14T13:57:36.560Z,102902.94
2023-02-14T14:00:18.918Z,102940.09
2023-02-14T14:02:51.519Z,102929.28
2023-02-14T14:05:30.363Z,102933.25
2023-02-14T14:08:22.346Z,102926.50
2023-02-14T14:11:00.374Z,102894.34
2023-02-14T14:13:42.246Z,102925.88
2023-02-14T14:16:24.074Z,102927.09
2023-02-14T14:18:54.182Z,102845.03
2023-02-14T14:21:41.275Z,102917.19
2023-02-14T14:24:22.558Z,102865.31
2023-02-14T14:27:05.122Z,102891.59
2023-02-14T14:29:39.480Z,102920.28
2023-02-14T14:32:19.077Z,102908.13
2023-02-14T14:35:10.105Z,102889.13
2023-02-14T14:37:46.901Z,102810.72
2023-02-14T14:40:35.584Z,102889.91
2023-02-14T14:43:09.906Z,102824.78
2023-02-14T14:45:37.011Z,102885.78
2023-02-14T14:48:12.632Z,102882.72
2023-02-14T14:50:45.846Z,102893.88
2023-02-14T14:53:27.052Z,102861.50
2023-02-14T14:55:54.747Z,102851.63
2023-02-14T14:58:41.754Z,102814.72
2023-02-14T15:01:21.374Z,102827.34
2023-02-14T15:03:48.117Z,102875.06
2023-02-14T15:06:21.222Z,102878.03
2023-02-14T15:08:49.512Z,102885.84
2023-02-14T15:11:40.355Z,102849.13
2023-02-14T15:14:13.219Z,102882.81
2023-02-14T15:16:50.137Z,102846.16
2023-02-14T15:19:22.934Z,102875.28
2023-02-14T15:21:50.423Z,102793.97
2023-02-14T15:24:19.343Z,102902.63
2023-02-14T15:26:48.438Z,102884.50
2023-02-14T15:29:30.589Z,102899.31
2023-02-14T15:32:02.510Z,102812.38
2023-02-14T15:34:37.690Z,102873.38
2023-02-14T15:37:06.548Z,102806.88
2023-02-14T15:39:37.641Z,102799.66
2023-02-14T15:42:05.923Z,102863.59
2023-02-14T15:44:32.890Z,102898.13
2023-02-14T15:47:02.889Z,102882.56
2023-02-14T15:49:38.110Z,102853.09
2023-02-14T15:52:06.590Z,102883.31
2023-02-14T15:54:38.327Z,102792.03
2023-02-14T15:57:07.642Z,102801.75
2023-02-14T15:59:36.751Z,102806.91
2023-02-14T16:02:19.497Z,102852.63
2023-02-14T16:04:46.031Z,102875.28
2023-02-14T16:07:26.521Z,102871.03
2023-02-14T16:10:26.520Z,102876.00
2023-02-14T16:12:59.197Z,102868.47
2023-02-14T16:15:27.415Z,102890.22
2023-02-14T16:17:54.021Z,102872.00
2023-02-14T16:20:28.690Z,102802.13
2023-02-14T16:23:28.343Z,102890.56
2023-02-14T16:25:58.911Z,102786.31
2023-02-14T16:28:30.168Z,102794.16
2023-02-14T16:30:58.668Z,102874.97
2023-02-14T16:33:28.884Z,102792.03
2023-02-14T16:36:01.259Z,102753.84
2023-02-14T16:38:27.866Z,102886.38
2023-02-14T16:40:54.651Z,102858.97
2023-02-14T16:43:21.629Z,102893.31
2023-02-14T16:45:48.486Z,102857.63
2023-02-14T16:48:17.955Z,102878.53
2023-02-14T16:50:45.601Z,102719.84
2023-02-14T16:53:23.807Z,102856.81
2023-02-14T16:55:53.017Z,102797.41
2023-02-14T16:58:21.492Z,102779.97
2023-02-14T17:00:48.099Z,102849.09
2023-02-14T17:03:14.701Z,102855.31
2023-02-14T17:05:41.720Z,102841.84
2023-02-14T17:08:11.680Z,102869.03
2023-02-14T17:10:41.481Z,102775.13
2023-02-14T17:13:09.777Z,102860.66
2023-02-14T17:15:39.026Z,102788.03
2023-02-14T17:18:11.742Z,102892.00
2023-02-14T17:20:38.722Z,102897.38
2023-02-14T17:23:05.346Z,102868.53
2023-02-14T17:25:32.214Z,102876.19
2023-02-14T17:28:00.920Z,102911.44
2023-02-14T17:30:28.060Z,102857.09
2023-02-14T17:32:54.602Z,102909.22
2023-02-14T17:35:21.460Z,102804.56
2023-02-14T17:37:48.029Z,102784.09
2023-02-14T17:40:14.984Z,102777.13
2023-02-14T17:42:42.320Z,102782.59
2023-02-14T17:45:11.637Z,102851.31
2023-02-14T17:47:39.707Z,102896.34
2023-02-14T17:50:07.134Z,102885.41
2023-02-14T17:52:34.352Z,102793.13
2023-02-14T17:55:00.978Z,102768.91
2023-02-14T17:57:27.579Z,102810.97
2023-02-14T17:59:54.136Z,102826.75
2023-02-14T18:02:20.735Z,102864.38
2023-02-14T18:04:48.378Z,102908.72
2023-02-14T18:07:15.141Z,102875.72
2023-02-14T18:09:41.707Z,102888.28
2023-02-14T18:12:14.471Z,102794.13
2023-02-14T18:14:41.748Z,102912.09
2023-02-14T18:17:08.379Z,102886.34
2023-02-14T18:19:35.046Z,102822.88
2023-02-14T18:22:01.648Z,102834.22
2023-02-14T18:24:28.277Z,102899.00
2023-02-14T18:26:55.400Z,102782.91
2023-02-14T18:29:22.701Z,102863.06
2023-02-14T18:31:49.617Z,102784.50
2023-02-14T18:34:16.247Z,102884.44
2023-02-14T18:36:42.930Z,102780.13
2023-02-14T18:39:10.434Z,102783.44
2023-02-14T18:41:37.256Z,102785.75
2023-02-14T18:44:04.432Z,102851.94
2023-02-14T18:46:35.194Z,102813.81
2023-02-14T18:49:03.692Z,102840.28
2023-02-14T18:51:32.659Z,102862.00
2023-02-14T18:54:04.407Z,102773.94
2023-02-14T18:56:34.086Z,102861.66
2023-02-14T18:59:10.027Z,102825.16
2023-02-14T19:01:43.445Z,102799.38
2023-02-14T19:04:12.206Z,102772.38
2023-02-14T19:06:40.872Z,102841.53
2023-02-14T19:09:10.549Z,102845.75
2023-02-14T19:11:38.656Z,102867.84
2023-02-14T19:14:09.953Z,102829.25
2023-02-14T19:16:41.882Z,102864.22
2023-02-14T19:19:08.744Z,102824.94
2023-02-14T19:21:35.570Z,102782.16
2023-02-14T19:24:06.726Z,102773.81
2023-02-14T19:26:37.600Z,102804.63
2023-02-14T19:29:08.111Z,102822.19
2023-02-14T19:31:36.545Z,102807.25
2023-02-14T19:34:06.126Z,102735.25
2023-02-14T19:36:35.149Z,102816.97
2023-02-14T19:39:01.818Z,102831.84
2023-02-14T19:41:31.573Z,102744.66
2023-02-14T19:43:58.984Z,102791.31
2023-02-14T19:46:26.854Z,102740.75
2023-02-14T19:48:53.645Z,102808.22
2023-02-14T19:51:23.195Z,102847.84
2023-02-14T19:53:50.104Z,102809.94
2023-02-14T19:56:21.369Z,102816.13
2023-02-14T19:58:49.481Z,102793.75
2023-02-14T20:01:25.283Z,102805.16
2023-02-14T20:03:53.218Z,102746.06
2023-02-14T20:06:24.566Z,102804.13
2023-02-14T20:08:51.776Z,102812.69
2023-02-14T20:11:36.620Z,102829.59
2023-02-14T20:14:04.733Z,102706.31
2023-02-14T20:16:33.769Z,102824.09
2023-02-14T20:19:13.461Z,102757.34
2023-02-14T20:21:41.811Z,102778.22
2023-02-14T20:24:09.098Z,102794.34
2023-02-14T20:26:37.221Z,102822.03
2023-02-14T20:29:04.997Z,102796.94
2023-02-14T20:31:34.649Z,102818.66
2023-02-14T20:34:01.596Z,102818.41
2023-02-14T20:36:28.885Z,102735.53
2023-02-14T20:39:00.384Z,102755.84
2023-02-14T20:41:28.245Z,102814.53
2023-02-14T20:43:55.332Z,102669.81
2023-02-14T20:46:22.542Z,102712.72
2023-02-14T20:48:50.928Z,102798.56
2023-02-14T20:51:19.811Z,102703.59
2023-02-14T20:53:47.037Z,102713.41
2023-02-14T20:56:14.733Z,102799.69
2023-02-14T20:58:41.912Z,102772.31
2023-02-14T21:01:20.437Z,102801.53
2023-02-14T21:03:50.771Z,102701.44
2023-02-14T21:06:19.083Z,102769.00
2023-02-14T21:08:46.330Z,102771.50
2023-02-14T21:11:15.725Z,102727.56
2023-02-14T21:13:42.553Z,102788.28
2023-02-14T21:16:15.385Z,102780.63
2023-02-14T21:18:47.791Z,102641.38
2023-02-14T21:21:19.424Z,102789.84
2023-02-14T21:23:49.098Z,102754.34
2023-02-14T21:26:16.329Z,102747.59
2023-02-14T21:28:42.924Z,102756.72
2023-02-14T21:31:11.501Z,102761.75
2023-02-14T21:33:38.605Z,102654.22
2023-02-14T21:36:10.626Z,102657.44
2023-02-14T21:38:37.285Z,102722.81
2023-02-14T21:41:06.239Z,102676.13
2023-02-14T21:43:37.975Z,102588.50
2023-02-14T21:46:07.333Z,102760.38
2023-02-14T21:48:52.636Z,102763.25
2023-02-14T21:51:19.940Z,102669.06
2023-02-14T21:53:47.071Z,102748.84
2023-02-14T21:56:17.931Z,102761.28
2023-02-14T21:58:45.137Z,102625.41
2023-02-14T22:01:16.679Z,102742.06
2023-02-14T22:03:43.408Z,102693.63
2023-02-14T22:06:10.363Z,102764.63
2023-02-14T22:08:36.951Z,102740.75
2023-02-14T22:11:08.778Z,102761.41
2023-02-14T22:13:35.790Z,102722.91
2023-02-14T22:16:13.499Z,102739.00
2023-02-14T22:18:41.086Z,102756.59
2023-02-14T22:21:11.607Z,102664.56
2023-02-14T22:23:38.314Z,102741.06
2023-02-14T22:26:25.711Z,102722.66
2023-02-14T22:28:56.903Z,102664.09
2023-02-14T22:31:24.830Z,102752.56
2023-02-14T22:33:51.915Z,102756.78
2023-02-14T22:36:18.467Z,102615.63
2023-02-14T22:38:45.154Z,102723.22
2023-02-14T22:41:14.269Z,102766.84
2023-02-14T22:43:41.780Z,102737.06
2023-02-14T22:46:17.152Z,102660.44
2023-02-14T22:48:44.341Z,102745.38
2023-02-14T22:51:19.672Z,102758.91
2023-02-14T22:53:46.789Z,102731.41
2023-02-14T22:56:19.041Z,102746.44
2023-02-14T22:58:46.237Z,102633.66
2023-02-14T23:01:18.236Z,102731.16
2023-02-14T23:03:45.711Z,102630.75
2023-02-14T23:06:13.329Z,102634.56
2023-02-14T23:08:45.052Z,102705.53
2023-02-14T23:11:16.948Z,102738.94
2023-02-14T23:14:02.584Z,102681.59
2023-02-14T23:16:48.092Z,102631.97
2023-02-14T23:19:38.388Z,102746.69
2023-02-14T23:22:08.237Z,102642.34
2023-02-14T23:24:34.848Z,102738.00
2023-02-14T23:27:01.904Z,102715.09
2023-02-14T23:29:28.857Z,102631.19
2023-02-14T23:31:55.918Z,102658.53
2023-02-14T23:34:27.258Z,102719.75
2023-02-14T23:36:53.808Z,102673.72
2023-02-14T23:39:20.571Z,102744.41
2023-02-14T23:41:47.128Z,102709.31
2023-02-14T23:44:27.746Z,102736.44
2023-02-14T23:46:56.358Z,102747.97
2023-02-14T23:49:24.497Z,102742.41
2023-02-14T23:51:52.461Z,102639.84
2023-02-14T23:54:20.452Z,102732.13
2023-02-14T23:56:47.736Z,102709.66
2023-02-14T23:59:15.298Z,102707.59
